createdAt,value
2018-12-11T00:02:20.067Z,82.09
2018-12-11T00:04:49.000Z,81.68
2018-12-11T00:07:17.944Z,81.95
2018-12-11T00:09:46.885Z,82.22
2018-12-11T00:12:15.776Z,82.00
2018-12-11T00:14:44.659Z,81.86
2018-12-11T00:17:13.578Z,82.02
2018-12-11T00:19:42.515Z,82.32
2018-12-11T00:22:11.411Z,81.87
2018-12-11T00:24:40.323Z,82.20
2018-12-11T00:27:09.227Z,82.42
2018-12-11T00:29:38.210Z,82.11
2018-12-11T00:32:07.114Z,80.55
2018-12-11T00:34:35.998Z,81.34
2018-12-11T00:37:04.911Z,79.20
2018-12-11T00:39:33.834Z,80.28
2018-12-11T00:42:02.754Z,79.00
2018-12-11T00:44:31.664Z,80.78
2018-12-11T00:47:00.558Z,80.99
2018-12-11T00:49:29.473Z,81.35
2018-12-11T00:51:58.437Z,81.18
2018-12-11T00:54:27.299Z,81.19
2018-12-11T00:56:56.162Z,82.00
2018-12-11T00:59:25.069Z,82.42
2018-12-11T01:01:53.976Z,83.02
2018-12-11T01:04:22.905Z,82.37
2018-12-11T01:06:51.858Z,82.58
2018-12-11T01:09:20.777Z,82.61
2018-12-11T01:11:49.748Z,82.30
2018-12-11T01:14:18.626Z,83.14
2018-12-11T01:16:47.500Z,83.01
2018-12-11T01:19:16.476Z,83.26
2018-12-11T01:21:45.291Z,83.28
2018-12-11T01:24:14.216Z,83.60
2018-12-11T01:26:43.093Z,83.21
2018-12-11T01:29:11.995Z,83.41
2018-12-11T01:31:40.903Z,83.46
2018-12-11T01:34:09.832Z,83.81
2018-12-11T01:36:39.120Z,83.64
2018-12-11T01:39:09.388Z,83.73
2018-12-11T01:41:38.330Z,83.89
2018-12-11T01:44:07.266Z,83.93
2018-12-11T01:46:36.594Z,84.16
2018-12-11T01:49:05.088Z,84.30
2018-12-11T01:51:34.014Z,83.82
2018-12-11T01:54:02.903Z,84.13
2018-12-11T01:56:31.813Z,83.74
2018-12-11T01:59:00.691Z,83.88
2018-12-11T02:01:29.649Z,83.49
2018-12-11T02:03:58.477Z,83.73
2018-12-11T02:06:27.384Z,83.94
2018-12-11T02:08:56.259Z,83.87
2018-12-11T02:11:25.147Z,83.49
2018-12-11T02:13:54.101Z,82.88
2018-12-11T02:16:23.026Z,82.49
2018-12-11T02:18:52.004Z,80.86
2018-12-11T02:21:20.949Z,81.53
2018-12-11T02:23:49.866Z,82.27
2018-12-11T02:26:18.776Z,82.44
2018-12-11T02:28:47.666Z,80.52
2018-12-11T02:31:16.591Z,81.85
2018-12-11T02:33:45.470Z,82.15
2018-12-11T02:36:14.345Z,83.02
2018-12-11T02:38:43.256Z,82.74
2018-12-11T02:41:12.142Z,82.69
2018-12-11T02:43:41.083Z,82.86
2018-12-11T02:46:09.956Z,83.07
2018-12-11T02:48:38.856Z,83.41
2018-12-11T02:51:07.738Z,83.35
2018-12-11T02:53:36.668Z,83.74
2018-12-11T02:56:05.625Z,84.17
2018-12-11T02:58:34.576Z,82.34
2018-12-11T03:01:03.481Z,83.42
2018-12-11T03:03:32.429Z,83.59
2018-12-11T03:06:01.335Z,83.85
2018-12-11T03:08:30.264Z,83.62
2018-12-11T03:10:59.157Z,82.19
2018-12-11T03:13:28.077Z,83.20
2018-12-11T03:15:56.993Z,83.23
2018-12-11T03:18:25.919Z,83.35
2018-12-11T03:20:54.806Z,83.40
2018-12-11T03:23:23.718Z,83.63
2018-12-11T03:25:52.591Z,83.66
2018-12-11T03:28:21.527Z,83.33
2018-12-11T03:30:50.417Z,83.88
2018-12-11T03:33:19.285Z,83.82
2018-12-11T03:35:48.200Z,84.05
2018-12-11T03:38:17.088Z,83.63
2018-12-11T03:40:46.006Z,83.48
2018-12-11T03:43:14.885Z,83.51
2018-12-11T03:45:43.781Z,83.87
2018-12-11T03:48:12.672Z,83.70
2018-12-11T03:50:41.582Z,83.40
2018-12-11T03:53:10.548Z,83.61
2018-12-11T03:55:39.378Z,83.87
2018-12-11T03:58:08.310Z,84.07
2018-12-11T04:00:37.181Z,84.18
2018-12-11T04:03:06.159Z,84.05
2018-12-11T04:05:35.109Z,84.02
2018-12-11T04:08:04.027Z,83.88
2018-12-11T04:10:32.919Z,83.94
2018-12-11T04:13:01.822Z,82.65
2018-12-11T04:15:30.748Z,83.62
2018-12-11T04:17:59.652Z,83.59
2018-12-11T04:20:28.625Z,83.56
2018-12-11T04:22:57.545Z,83.06
2018-12-11T04:25:26.480Z,82.96
2018-12-11T04:27:55.366Z,82.59
2018-12-11T04:30:24.288Z,82.32
2018-12-11T04:32:53.188Z,82.46
2018-12-11T04:35:22.108Z,82.57
2018-12-11T04:37:51.053Z,82.48
2018-12-11T04:40:19.948Z,82.71
2018-12-11T04:42:48.872Z,83.21
2018-12-11T04:45:17.780Z,83.21
2018-12-11T04:47:46.684Z,83.42
2018-12-11T04:50:15.591Z,83.63
2018-12-11T04:52:44.530Z,83.72
2018-12-11T04:55:13.447Z,83.39
2018-12-11T04:57:42.345Z,83.39
2018-12-11T05:00:11.298Z,83.52
2018-12-11T05:02:40.209Z,83.62
2018-12-11T05:05:09.179Z,83.83
2018-12-11T05:07:38.083Z,83.71
2018-12-11T05:10:07.813Z,83.85
2018-12-11T05:12:36.722Z,83.73
2018-12-11T05:15:05.999Z,81.45
2018-12-11T05:17:34.886Z,82.65
2018-12-11T05:20:03.861Z,83.03
2018-12-11T05:22:32.788Z,83.27
2018-12-11T05:25:01.691Z,83.45
2018-12-11T05:27:30.617Z,83.29
2018-12-11T05:29:59.511Z,83.61
2018-12-11T05:32:28.398Z,83.41
2018-12-11T05:34:57.333Z,83.50
2018-12-11T05:37:26.227Z,83.47
2018-12-11T05:39:55.127Z,83.55
2018-12-11T05:42:24.040Z,83.65
2018-12-11T05:44:52.937Z,83.80
2018-12-11T05:47:21.884Z,83.90
2018-12-11T05:49:50.737Z,83.79
2018-12-11T05:52:19.631Z,83.53
2018-12-11T05:54:48.540Z,83.43
2018-12-11T05:57:17.481Z,83.62
2018-12-11T05:59:46.380Z,83.62
2018-12-11T06:02:15.345Z,83.46
2018-12-11T06:04:44.208Z,83.21
2018-12-11T06:07:13.102Z,83.19
2018-12-11T06:09:42.018Z,83.79
2018-12-11T06:12:10.963Z,83.91
2018-12-11T06:14:39.874Z,83.98
2018-12-11T06:17:08.805Z,83.76
2018-12-11T06:19:37.754Z,83.39
2018-12-11T06:22:06.659Z,83.56
2018-12-11T06:24:35.585Z,83.57
2018-12-11T06:27:04.528Z,83.66
2018-12-11T06:29:33.451Z,84.09
2018-12-11T06:32:02.336Z,84.15
2018-12-11T06:34:31.240Z,83.96
2018-12-11T06:37:00.156Z,84.08
2018-12-11T06:39:29.052Z,84.33
2018-12-11T06:41:57.956Z,84.23
2018-12-11T06:44:26.840Z,83.93
2018-12-11T06:46:55.749Z,84.16
2018-12-11T06:49:24.643Z,84.47
2018-12-11T06:51:53.559Z,84.03
2018-12-11T06:54:22.469Z,83.33
2018-12-11T06:56:51.364Z,83.34
2018-12-11T06:59:20.282Z,81.97
2018-12-11T07:01:49.170Z,82.69
2018-12-11T07:04:18.109Z,83.31
2018-12-11T07:06:47.005Z,83.36
2018-12-11T07:09:15.910Z,83.66
2018-12-11T07:11:44.896Z,83.51
2018-12-11T07:14:13.850Z,83.73
2018-12-11T07:16:42.764Z,83.79
2018-12-11T07:19:11.666Z,84.03
2018-12-11T07:21:40.556Z,83.88
2018-12-11T07:24:09.553Z,83.61
2018-12-11T07:26:38.475Z,83.50
2018-12-11T07:29:07.443Z,82.52
2018-12-11T07:31:36.349Z,83.45
2018-12-11T07:34:05.356Z,83.44
2018-12-11T07:36:34.321Z,83.28
2018-12-11T07:39:04.147Z,83.37
2018-12-11T07:41:33.030Z,83.07
2018-12-11T07:44:01.934Z,83.28
2018-12-11T07:46:30.855Z,83.51
2018-12-11T07:48:59.780Z,83.82
2018-12-11T07:51:28.708Z,84.12
2018-12-11T07:53:57.624Z,83.90
2018-12-11T07:56:26.524Z,83.83
2018-12-11T07:58:55.540Z,83.96
2018-12-11T08:01:24.499Z,83.79
2018-12-11T08:03:53.404Z,83.78
2018-12-11T08:06:22.335Z,83.34
2018-12-11T08:08:51.252Z,83.56
2018-12-11T08:11:20.143Z,81.26
2018-12-11T08:13:49.123Z,79.92
2018-12-11T08:16:18.183Z,80.81
2018-12-11T08:18:47.105Z,80.78
2018-12-11T08:21:16.505Z,81.30
2018-12-11T08:23:46.280Z,80.76
2018-12-11T08:26:15.120Z,80.56
2018-12-11T08:28:44.032Z,80.43
2018-12-11T08:31:12.979Z,80.83
2018-12-11T08:33:41.923Z,80.70
2018-12-11T08:36:10.879Z,80.49
2018-12-11T08:38:49.934Z,80.27
2018-12-11T08:41:22.457Z,78.91
2018-12-11T08:43:52.801Z,80.66
2018-12-11T08:46:25.217Z,81.71
2018-12-11T08:48:57.536Z,82.04
2018-12-11T08:51:27.149Z,81.82
2018-12-11T08:53:56.663Z,81.54
2018-12-11T08:56:34.013Z,80.83
2018-12-11T08:59:06.585Z,79.27
2018-12-11T09:01:35.430Z,76.34
2018-12-11T09:04:08.542Z,76.03
2018-12-11T09:06:40.647Z,77.77
2018-12-11T09:09:13.213Z,76.99
2018-12-11T09:11:50.632Z,75.62
2018-12-11T09:14:26.598Z,74.92
2018-12-11T09:17:09.905Z,74.57
2018-12-11T09:19:41.191Z,73.44
2018-12-11T09:22:10.722Z,71.38
2018-12-11T09:24:43.575Z,69.86
2018-12-11T09:27:18.493Z,70.09
2018-12-11T09:29:58.054Z,70.59
2018-12-11T09:32:25.528Z,70.80
2018-12-11T09:34:57.619Z,70.24
2018-12-11T09:37:26.909Z,69.92
2018-12-11T09:40:02.294Z,69.00
2018-12-11T09:42:33.160Z,67.06
2018-12-11T09:45:06.644Z,67.20
2018-12-11T09:47:38.163Z,65.65
2018-12-11T09:50:08.945Z,59.39
2018-12-11T09:52:47.584Z,58.24
2018-12-11T09:55:23.098Z,56.55
2018-12-11T09:57:52.184Z,54.64
2018-12-11T10:00:27.266Z,54.20
2018-12-11T10:02:54.031Z,53.32
2018-12-11T10:05:26.688Z,51.41
2018-12-11T10:08:00.209Z,49.92
2018-12-11T10:10:31.126Z,47.86
2018-12-11T10:13:06.892Z,45.46
2018-12-11T10:15:36.451Z,44.02
2018-12-11T10:18:08.774Z,43.24
2018-12-11T10:20:47.896Z,42.04
2018-12-11T10:23:20.426Z,41.19
2018-12-11T10:25:50.177Z,39.78
2018-12-11T10:28:30.443Z,39.03
2018-12-11T10:31:03.941Z,38.83
2018-12-11T10:33:43.561Z,39.02
2018-12-11T10:36:13.269Z,42.06
2018-12-11T10:38:42.786Z,44.31
2018-12-11T10:41:15.271Z,46.73
2018-12-11T10:43:44.666Z,49.80
2018-12-11T10:46:16.058Z,52.84
2018-12-11T10:48:48.513Z,54.75
2018-12-11T10:51:23.500Z,54.63
2018-12-11T10:53:53.019Z,55.20
2018-12-11T10:56:27.404Z,56.33
2018-12-11T10:58:54.994Z,57.17
2018-12-11T11:01:35.740Z,58.23
2018-12-11T11:04:12.255Z,57.73
2018-12-11T11:06:46.324Z,60.17
2018-12-11T11:09:14.140Z,60.84
2018-12-11T11:11:43.739Z,61.31
2018-12-11T11:14:12.932Z,59.21
2018-12-11T11:16:42.392Z,57.99
2018-12-11T11:19:15.058Z,57.59
2018-12-11T11:21:41.530Z,58.86
2018-12-11T11:24:13.728Z,59.68
2018-12-11T11:26:45.277Z,60.83
2018-12-11T11:29:15.221Z,61.66
2018-12-11T11:31:44.319Z,61.66
2018-12-11T11:34:16.426Z,62.03
2018-12-11T11:36:48.542Z,63.04
2018-12-11T11:39:20.336Z,62.78
2018-12-11T11:41:49.762Z,62.34
2018-12-11T11:44:22.218Z,62.94
2018-12-11T11:46:51.605Z,63.08
2018-12-11T11:49:21.100Z,63.77
2018-12-11T11:51:50.667Z,64.09
2018-12-11T11:54:20.177Z,63.91
2018-12-11T11:56:49.920Z,63.79
2018-12-11T11:59:22.323Z,63.74
2018-12-11T12:01:56.797Z,63.16
2018-12-11T12:04:28.878Z,62.57
2018-12-11T12:07:06.533Z,62.14
2018-12-11T12:09:38.137Z,62.57
2018-12-11T12:12:07.427Z,62.67
2018-12-11T12:14:39.047Z,62.10
2018-12-11T12:17:11.463Z,62.33
2018-12-11T12:19:43.945Z,63.03
2018-12-11T12:22:14.948Z,63.48
2018-12-11T12:24:44.678Z,64.98
2018-12-11T12:27:16.159Z,64.52
2018-12-11T12:29:49.212Z,64.47
2018-12-11T12:32:26.197Z,64.82
2018-12-11T12:34:56.564Z,65.91
2018-12-11T12:37:33.163Z,64.97
2018-12-11T12:40:04.903Z,65.20
2018-12-11T12:42:36.951Z,66.47
2018-12-11T12:45:06.864Z,66.57
2018-12-11T12:47:36.377Z,66.47
2018-12-11T12:50:09.186Z,66.52
2018-12-11T12:52:38.565Z,65.19
2018-12-11T12:55:08.623Z,64.53
2018-12-11T12:57:42.715Z,64.43
2018-12-11T13:00:17.755Z,63.18
2018-12-11T13:02:50.096Z,63.32
2018-12-11T13:05:19.154Z,63.98
2018-12-11T13:07:49.016Z,63.82
2018-12-11T13:10:18.518Z,64.09
2018-12-11T13:12:52.054Z,64.46
2018-12-11T13:15:23.084Z,64.21
2018-12-11T13:17:53.048Z,65.18
2018-12-11T13:20:24.738Z,64.99
2018-12-11T13:22:54.481Z,66.13
2018-12-11T13:25:26.431Z,67.00
2018-12-11T13:28:00.814Z,67.46
2018-12-11T13:30:37.405Z,67.41
2018-12-11T13:33:10.210Z,68.17
2018-12-11T13:35:39.677Z,67.26
2018-12-11T13:38:11.733Z,67.98
2018-12-11T13:40:44.116Z,68.00
2018-12-11T13:43:16.008Z,68.65
2018-12-11T13:45:51.624Z,69.29
2018-12-11T13:48:23.981Z,68.88
2018-12-11T13:50:56.243Z,67.84
2018-12-11T13:53:30.792Z,68.18
2018-12-11T13:56:02.092Z,69.09
2018-12-11T13:58:33.072Z,69.20
2018-12-11T14:01:02.588Z,68.84
2018-12-11T14:03:36.919Z,69.27
2018-12-11T14:06:04.085Z,69.20
2018-12-11T14:08:36.138Z,68.71
2018-12-11T14:11:08.505Z,67.61
2018-12-11T14:13:40.881Z,67.54
2018-12-11T14:16:13.633Z,67.62
2018-12-11T14:18:46.223Z,68.28
2018-12-11T14:21:15.426Z,68.63
2018-12-11T14:23:45.027Z,69.29
2018-12-11T14:26:16.912Z,68.94
2018-12-11T14:28:44.602Z,69.33
2018-12-11T14:31:17.051Z,69.38
2018-12-11T14:33:47.027Z,69.69
2018-12-11T14:36:16.661Z,69.83
2018-12-11T14:38:50.614Z,69.74
2018-12-11T14:41:19.990Z,69.45
2018-12-11T14:43:49.278Z,69.95
2018-12-11T14:46:19.385Z,70.58
2018-12-11T14:48:48.754Z,70.88
2018-12-11T14:51:22.880Z,70.77
2018-12-11T14:53:55.869Z,70.62
2018-12-11T14:56:22.522Z,71.37
2018-12-11T14:58:52.167Z,71.61
2018-12-11T15:01:24.817Z,71.85
2018-12-11T15:03:57.042Z,71.69
2018-12-11T15:06:36.167Z,71.26
2018-12-11T15:09:21.722Z,71.13
2018-12-11T15:12:01.891Z,70.28
2018-12-11T15:14:35.804Z,71.40
2018-12-11T15:17:05.887Z,69.60
2018-12-11T15:19:42.833Z,70.21
2018-12-11T15:22:14.561Z,70.50
2018-12-11T15:24:57.554Z,70.56
2018-12-11T15:27:31.630Z,71.37
2018-12-11T15:30:13.929Z,71.75
2018-12-11T15:32:53.920Z,71.16
2018-12-11T15:36:07.051Z,71.37
2018-12-11T15:38:16.443Z,71.45
2018-12-11T15:41:01.536Z,70.93
2018-12-11T15:43:42.190Z,73.00
2018-12-11T15:46:28.677Z,73.25
2018-12-11T15:49:05.917Z,73.83
2018-12-11T15:51:36.548Z,74.15
2018-12-11T15:54:06.811Z,74.13
2018-12-11T15:56:39.249Z,72.93
2018-12-11T15:59:08.691Z,73.39
2018-12-11T16:01:45.561Z,72.53
2018-12-11T16:04:15.149Z,74.53
2018-12-11T16:06:47.155Z,74.30
2018-12-11T16:09:16.626Z,75.14
2018-12-11T16:11:46.268Z,75.65
2018-12-11T16:14:15.787Z,75.46
2018-12-11T16:16:48.463Z,75.25
2018-12-11T16:19:38.445Z,74.92
2018-12-11T16:22:08.157Z,74.81
2018-12-11T16:24:45.096Z,75.02
2018-12-11T16:27:15.471Z,74.04
2018-12-11T16:29:47.267Z,75.86
2018-12-11T16:32:26.557Z,75.99
2018-12-11T16:35:02.465Z,76.03
2018-12-11T16:37:42.983Z,76.19
2018-12-11T16:40:13.588Z,75.78
2018-12-11T16:42:40.679Z,76.72
2018-12-11T16:45:10.133Z,77.60
2018-12-11T16:47:39.521Z,77.36
2018-12-11T16:50:15.066Z,76.75
2018-12-11T16:52:41.982Z,75.74
2018-12-11T16:55:21.682Z,76.35
2018-12-11T16:57:52.465Z,74.69
2018-12-11T17:00:22.357Z,76.95
2018-12-11T17:02:51.998Z,77.39
2018-12-11T17:05:25.315Z,77.09
2018-12-11T17:07:55.653Z,77.11
2018-12-11T17:10:25.288Z,77.22
2018-12-11T17:12:54.778Z,77.24
2018-12-11T17:15:28.214Z,76.99
2018-12-11T17:21:35.016Z,78.63
2018-12-11T17:24:06.901Z,79.00
2018-12-11T17:26:40.780Z,78.62
2018-12-11T17:29:12.564Z,77.89
2018-12-11T17:31:52.428Z,77.78
2018-12-11T17:34:20.628Z,78.22
2018-12-11T17:36:51.339Z,78.15
2018-12-11T17:39:23.311Z,78.51
2018-12-11T17:41:53.204Z,78.55
2018-12-11T17:44:22.731Z,78.90
2018-12-11T17:46:53.925Z,78.79
2018-12-11T17:49:28.451Z,79.46
2018-12-11T17:52:05.527Z,79.72
2018-12-11T17:54:37.177Z,78.66
2018-12-11T17:57:07.053Z,78.73
2018-12-11T17:59:39.725Z,78.72
2018-12-11T18:02:13.986Z,78.75
2018-12-11T18:04:48.700Z,78.91
2018-12-11T18:07:19.975Z,78.32
2018-12-11T18:10:01.015Z,78.67
2018-12-11T18:12:30.836Z,78.82
2018-12-11T18:15:00.257Z,79.04
2018-12-11T18:17:32.973Z,79.54
2018-12-11T18:20:02.199Z,78.95
2018-12-11T18:22:39.419Z,78.57
2018-12-11T18:25:10.940Z,78.76
2018-12-11T18:27:42.493Z,78.60
2018-12-11T18:30:15.475Z,78.62
2018-12-11T18:32:48.628Z,78.69
2018-12-11T18:35:27.922Z,78.89
2018-12-11T18:37:57.781Z,78.37
2018-12-11T18:40:36.318Z,76.48
2018-12-11T18:43:05.937Z,77.92
2018-12-11T18:45:35.242Z,78.21
2018-12-11T18:48:13.112Z,77.99
2018-12-11T18:50:42.059Z,78.41
2018-12-11T18:53:11.038Z,79.16
2018-12-11T18:55:39.949Z,78.75
2018-12-11T18:58:08.944Z,78.23
2018-12-11T19:00:37.880Z,78.22
2018-12-11T19:03:06.877Z,77.97
2018-12-11T19:05:35.777Z,77.74
2018-12-11T19:08:04.712Z,77.98
2018-12-11T19:10:33.685Z,79.03
2018-12-11T19:13:02.557Z,78.99
2018-12-11T19:15:31.574Z,77.00
2018-12-11T19:18:00.471Z,78.03
2018-12-11T19:20:29.544Z,78.42
2018-12-11T19:23:05.694Z,77.91
2018-12-11T19:25:34.582Z,77.77
2018-12-11T19:28:03.509Z,78.45
2018-12-11T19:30:32.394Z,78.20
2018-12-11T19:33:01.372Z,78.54
2018-12-11T19:35:33.174Z,78.12
2018-12-11T19:37:59.181Z,78.37
2018-12-11T19:40:28.082Z,78.20
2018-12-11T19:42:56.955Z,78.54
2018-12-11T19:45:25.930Z,78.60
2018-12-11T19:47:54.801Z,78.25
2018-12-11T19:50:23.720Z,78.49
2018-12-11T19:52:52.595Z,78.04
2018-12-11T19:55:21.504Z,78.15
2018-12-11T19:57:50.399Z,78.20
2018-12-11T20:00:19.283Z,78.44
2018-12-11T20:02:48.204Z,78.08
2018-12-11T20:05:17.186Z,77.33
2018-12-11T20:07:46.141Z,77.13
2018-12-11T20:10:15.050Z,77.14
2018-12-11T20:12:44.058Z,77.24
2018-12-11T20:15:12.921Z,77.64
2018-12-11T20:17:42.010Z,78.64
2018-12-11T20:20:24.296Z,78.78
2018-12-11T20:22:53.199Z,79.06
2018-12-11T20:25:22.456Z,79.05
2018-12-11T20:27:51.413Z,78.26
2018-12-11T20:30:20.369Z,78.92
2018-12-11T20:32:49.344Z,78.49
2018-12-11T20:35:18.251Z,77.69
2018-12-11T20:37:47.185Z,77.85
2018-12-11T20:40:16.230Z,77.75
2018-12-11T20:42:45.937Z,77.66
2018-12-11T20:45:14.851Z,76.26
2018-12-11T20:47:46.399Z,77.21
2018-12-11T20:50:15.432Z,78.06
2018-12-11T20:52:44.337Z,78.07
2018-12-11T20:55:13.259Z,78.37
2018-12-11T20:57:42.226Z,77.73
2018-12-11T21:00:11.349Z,77.71
2018-12-11T21:02:40.588Z,78.78
2018-12-11T21:05:09.461Z,77.24
2018-12-11T21:07:38.374Z,78.33
2018-12-11T21:10:09.869Z,78.21
2018-12-11T21:12:38.796Z,78.23
2018-12-11T21:15:08.420Z,78.08
2018-12-11T21:17:37.369Z,77.69
2018-12-11T21:20:07.293Z,77.78
2018-12-11T21:22:36.420Z,76.28
2018-12-11T21:25:05.461Z,77.29
2018-12-11T21:27:34.385Z,77.57
2018-12-11T21:30:03.681Z,77.34
2018-12-11T21:32:32.586Z,77.21
2018-12-11T21:35:01.483Z,77.14
2018-12-11T21:37:30.388Z,76.75
2018-12-11T21:39:59.317Z,77.05
2018-12-11T21:42:28.207Z,76.92
2018-12-11T21:44:57.150Z,77.00
2018-12-11T21:47:26.025Z,77.69
2018-12-11T21:49:54.970Z,77.57
2018-12-11T21:52:23.869Z,77.35
2018-12-11T21:54:52.802Z,77.27
2018-12-11T21:57:21.718Z,77.23
2018-12-11T21:59:50.698Z,77.75
2018-12-11T22:02:19.635Z,77.33
2018-12-11T22:04:48.522Z,77.32
2018-12-11T22:07:17.393Z,78.44
2018-12-11T22:09:47.558Z,77.65
2018-12-11T22:12:16.481Z,77.92
2018-12-11T22:14:45.390Z,78.22
2018-12-11T22:17:14.284Z,77.95
2018-12-11T22:19:43.241Z,78.41
2018-12-11T22:22:12.207Z,78.29
2018-12-11T22:24:41.110Z,77.96
2018-12-11T22:27:10.009Z,77.87
2018-12-11T22:29:38.911Z,77.70
2018-12-11T22:32:07.910Z,77.02
2018-12-11T22:34:36.790Z,76.32
2018-12-11T22:37:05.721Z,75.42
2018-12-11T22:39:34.606Z,74.72
2018-12-11T22:42:03.588Z,76.39
2018-12-11T22:44:32.488Z,76.68
2018-12-11T22:47:01.384Z,77.14
2018-12-11T22:49:30.285Z,77.62
2018-12-11T22:51:59.188Z,77.55
2018-12-11T22:54:28.125Z,77.53
2018-12-11T22:56:57.021Z,77.40
2018-12-11T22:59:25.928Z,77.40
2018-12-11T23:01:54.832Z,77.21
2018-12-11T23:04:23.750Z,77.76
2018-12-11T23:06:52.640Z,78.10
2018-12-11T23:09:21.513Z,78.42
2018-12-11T23:11:50.467Z,78.43
2018-12-11T23:14:19.340Z,78.04
2018-12-11T23:16:48.274Z,79.49
2018-12-11T23:19:17.154Z,79.40
2018-12-11T23:21:46.090Z,78.85
2018-12-11T23:24:14.954Z,78.95
2018-12-11T23:26:43.859Z,79.23
2018-12-11T23:29:12.747Z,79.09
2018-12-11T23:31:41.681Z,77.59
2018-12-11T23:34:11.330Z,77.22
2018-12-11T23:36:39.478Z,75.71
2018-12-11T23:39:08.398Z,77.23
2018-12-11T23:41:37.293Z,78.15
2018-12-11T23:44:06.225Z,78.56
2018-12-11T23:46:35.191Z,77.89
2018-12-11T23:49:04.055Z,78.16
2018-12-11T23:51:32.975Z,77.82
2018-12-11T23:54:01.866Z,78.93
2018-12-11T23:56:30.751Z,78.75
2018-12-11T23:58:59.652Z,77.89
